99NY weather

Hibbard's Airport
Wilson, New York, United States

Public forecast

Using degrees Fahrenheit for public forecast. Weather courtesy of forecast.io.

Closest aviation weather report (METAR) to Hibbard's Airport

Closest report is Niagara Falls International Airport, 10.3 nm (19.0 km) SW. Retrieved 2019/10/21 00:53 UTC (10 minutes ago):

KIAG 210053Z 09003KT 10SM CLR 10/08 A2995 RMK AO2 SLP150 T01000078

Closest aviation forecast (TAF) to Hibbard's Airport

Closest forecast is Niagara Falls International Airport, 10.3 nm (19.0 km) SW. Retrieved 2019-10-21 00:22 UTC (41 minutes ago):

TAF KIAG 202320Z 2100/2124 VRB03KT P6SM FEW250 FM211300 09005KT P6SM SCT250 FM212100 10010KT P6SM BKN200